Time,TemperatureF,DewpointF,PressureIn,WindDirection,WindDirectionDegrees,WindSpeedMPH,WindSpeedGustMPH,Humidity,HourlyPrecipIn,Conditions,Clouds,dailyrainin,SoftwareType,DateUTC
2013-05-15 00:08:00,56.7,48.0,30.02,SSW,194,0.0,1.0,72,0.00,,,0.00,weatherlink.com 1.10,2013-05-15 04:08:00,
2013-05-15 00:23:00,56.7,48.0,30.02,SSW,194,0.0,2.0,72,0.00,,,0.00,weatherlink.com 1.10,2013-05-15 04:23:00,
2013-05-15 00:38:00,56.8,48.0,30.00,SSW,197,0.0,1.0,72,0.00,,,0.00,weatherlink.com 1.10,2013-05-15 04:38:00,
2013-05-15 00:53:00,57.2,47.0,29.99,SSW,196,0.0,3.0,70,0.00,,,0.00,weatherlink.com 1.10,2013-05-15 04:53:00,
2013-05-15 01:08:00,57.5,48.0,29.99,SSW,196,0.0,3.0,70,0.00,,,0.00,weatherlink.com 1.10,2013-05-15 05:08:00,
2013-05-15 01:23:00,57.5,48.0,29.99,SW,217,0.0,1.0,71,0.00,,,0.00,weatherlink.com 1.10,2013-05-15 05:23:00,
2013-05-15 01:38:00,57.7,49.0,29.98,SW,214,0.0,1.0,73,0.00,,,0.00,weatherlink.com 1.10,2013-05-15 05:38:00,
2013-05-15 01:53:00,58.0,50.0,29.98,SSW,202,0.0,3.0,74,0.00,,,0.00,weatherlink.com 1.10,2013-05-15 05:53:00,
2013-05-15 02:08:00,57.9,50.0,29.97,SSW,192,1.0,1.0,75,0.00,,,0.00,weatherlink.com 1.10,2013-05-15 06:08:00,
2013-05-15 02:23:00,58.1,51.0,29.96,South,190,3.0,4.0,77,0.00,,,0.00,weatherlink.com 1.10,2013-05-15 06:23:00,
2013-05-15 02:38:00,58.3,52.0,29.96,SSW,197,0.0,3.0,79,0.00,,,0.00,weatherlink.com 1.10,2013-05-15 06:38:00,
2013-05-15 02:53:00,58.4,52.0,29.96,SSW,199,0.0,2.0,80,0.00,,,0.00,weatherlink.com 1.10,2013-05-15 06:53:00,
2013-05-15 03:08:00,58.3,53.0,29.95,South,182,1.0,3.0,81,0.00,,,0.00,weatherlink.com 1.10,2013-05-15 07:08:00,
2013-05-15 03:23:00,58.3,53.0,29.94,South,183,2.0,2.0,82,0.00,,,0.00,weatherlink.com 1.10,2013-05-15 07:23:00,
2013-05-15 03:38:00,58.5,53.0,29.94,SSW,206,1.0,4.0,82,0.00,,,0.00,weatherlink.com 1.10,2013-05-15 07:38:00,
2013-05-15 03:54:00,58.4,53.0,29.94,SSW,194,1.0,2.0,83,0.00,,,0.00,weatherlink.com 1.10,2013-05-15 07:54:00,
2013-05-15 04:09:00,58.1,53.0,29.94,SSW,199,0.0,2.0,84,0.00,,,0.00,weatherlink.com 1.10,2013-05-15 08:09:00,
2013-05-15 04:24:00,57.6,53.0,29.94,SSW,199,0.0,2.0,85,0.00,,,0.00,weatherlink.com 1.10,2013-05-15 08:24:00,
2013-05-15 04:39:00,57.5,53.0,29.93,SSW,207,1.0,4.0,85,0.00,,,0.00,weatherlink.com 1.10,2013-05-15 08:39:00,
2013-05-15 04:54:00,57.2,53.0,29.92,WSW,238,1.0,2.0,85,0.00,,,0.00,weatherlink.com 1.10,2013-05-15 08:54:00,
2013-05-15 05:09:00,57.1,53.0,29.92,SSW,196,0.0,3.0,85,0.00,,,0.00,weatherlink.com 1.10,2013-05-15 09:09:00,
2013-05-15 05:24:00,57.0,53.0,29.91,SSE,159,0.0,4.0,85,0.00,,,0.00,weatherlink.com 1.10,2013-05-15 09:24:00,
2013-05-15 05:39:00,56.8,52.0,29.92,SSW,209,0.0,3.0,85,0.00,,,0.00,weatherlink.com 1.10,2013-05-15 09:39:00,
2013-05-15 05:54:00,56.7,53.0,29.91,SSW,200,0.0,3.0,86,0.00,,,0.00,weatherlink.com 1.10,2013-05-15 09:54:00,
2013-05-15 06:09:00,56.4,53.0,29.91,South,180,0.0,2.0,87,0.00,,,0.00,weatherlink.com 1.10,2013-05-15 10:09:00,
2013-05-15 06:24:00,56.5,53.0,29.91,South,184,0.0,1.0,87,0.00,,,0.00,weatherlink.com 1.10,2013-05-15 10:24:00,
2013-05-15 06:39:00,56.6,53.0,29.92,South,184,0.0,0.0,88,0.00,,,0.00,weatherlink.com 1.10,2013-05-15 10:39:00,
2013-05-15 06:54:00,56.4,53.0,29.92,South,184,0.0,1.0,88,0.00,,,0.00,weatherlink.com 1.10,2013-05-15 10:54:00,
2013-05-15 07:09:00,56.3,53.0,29.91,South,184,1.0,1.0,88,0.00,,,0.00,weatherlink.com 1.10,2013-05-15 11:09:00,
2013-05-15 07:39:00,58.0,53.0,29.90,South,184,0.0,1.0,83,0.00,,,0.00,weatherlink.com 1.10,2013-05-15 11:39:00,
2013-05-15 07:54:00,59.4,51.0,29.89,SSW,196,5.0,5.0,73,0.00,,,0.00,weatherlink.com 1.10,2013-05-15 11:54:00,
2013-05-15 08:24:00,60.8,49.0,29.89,SSW,210,0.0,8.0,66,0.00,,,0.00,weatherlink.com 1.10,2013-05-15 12:24:00,
2013-05-15 08:39:00,61.4,49.0,29.89,SSW,209,4.0,7.0,63,0.00,,,0.00,weatherlink.com 1.10,2013-05-15 12:39:00,
2013-05-15 08:54:00,61.4,47.0,29.89,East,93,3.0,6.0,60,0.00,,,0.00,weatherlink.com 1.10,2013-05-15 12:54:00,
2013-05-15 09:09:00,61.2,47.0,29.90,South,183,0.0,6.0,61,0.00,,,0.00,weatherlink.com 1.10,2013-05-15 13:09:00,
2013-05-15 09:24:00,61.8,48.0,29.90,South,187,2.0,5.0,61,0.00,,,0.00,weatherlink.com 1.10,2013-05-15 13:24:00,
2013-05-15 10:09:00,60.2,52.0,29.89,South,173,0.0,1.0,74,0.00,,,0.00,weatherlink.com 1.10,2013-05-15 14:09:00,
2013-05-15 10:24:00,60.8,52.0,29.88,SSW,194,0.0,3.0,72,0.00,,,0.00,weatherlink.com 1.10,2013-05-15 14:24:00,
2013-05-15 10:54:00,62.2,51.0,29.86,SSW,199,0.0,4.0,68,0.00,,,0.00,weatherlink.com 1.10,2013-05-15 14:54:00,
2013-05-15 11:09:00,63.6,52.0,29.84,WSW,238,0.0,6.0,66,0.00,,,0.00,weatherlink.com 1.10,2013-05-15 15:09:00,
2013-05-15 11:24:00,64.1,51.0,29.84,SSW,198,4.0,13.0,63,0.00,,,0.00,weatherlink.com 1.10,2013-05-15 15:24:00,
2013-05-15 11:40:00,64.3,51.0,29.84,South,189,1.0,9.0,62,0.00,,,0.00,weatherlink.com 1.10,2013-05-15 15:40:00,
2013-05-15 11:55:00,64.5,51.0,29.83,South,172,0.0,12.0,62,0.00,,,0.00,weatherlink.com 1.10,2013-05-15 15:55:00,
2013-05-15 12:10:00,66.3,52.0,29.84,SSW,209,2.0,7.0,61,0.00,,,0.00,weatherlink.com 1.10,2013-05-15 16:10:00,
2013-05-15 12:25:00,67.8,53.0,29.84,SSW,211,3.0,5.0,60,0.00,,,0.00,weatherlink.com 1.10,2013-05-15 16:25:00,
2013-05-15 12:40:00,68.9,53.0,29.83,SSW,207,0.0,7.0,58,0.00,,,0.00,weatherlink.com 1.10,2013-05-15 16:40:00,
2013-05-15 13:25:00,72.0,55.0,29.79,SSW,205,0.0,7.0,56,0.00,,,0.00,weatherlink.com 1.10,2013-05-15 17:25:00,
2013-05-15 13:40:00,74.6,58.0,29.76,SW,232,5.0,8.0,57,0.00,,,0.00,weatherlink.com 1.10,2013-05-15 17:40:00,
2013-05-15 13:55:00,77.0,58.0,29.78,SSW,204,2.0,6.0,53,0.00,,,0.00,weatherlink.com 1.10,2013-05-15 17:55:00,
2013-05-15 14:10:00,78.0,59.0,29.82,North,5,3.0,5.0,52,0.00,,,0.00,weatherlink.com 1.10,2013-05-15 18:10:00,
2013-05-15 14:25:00,78.7,58.0,29.80,North,5,0.0,9.0,50,0.00,,,0.00,weatherlink.com 1.10,2013-05-15 18:25:00,
2013-05-15 14:40:00,79.2,59.0,29.80,North,8,0.0,7.0,51,0.00,,,0.00,weatherlink.com 1.10,2013-05-15 18:40:00,
2013-05-15 14:55:00,79.4,60.0,29.78,NNW,338,0.0,3.0,51,0.00,,,0.00,weatherlink.com 1.10,2013-05-15 18:55:00,
2013-05-15 15:10:00,78.9,61.0,29.77,SW,228,2.0,3.0,54,0.00,,,0.00,weatherlink.com 1.10,2013-05-15 19:10:00,
2013-05-15 15:25:00,78.4,60.0,29.76,SSW,197,3.0,5.0,53,0.00,,,0.00,weatherlink.com 1.10,2013-05-15 19:25:00,
2013-05-15 15:55:00,77.4,60.0,29.73,SW,220,2.0,5.0,55,0.00,,,0.00,weatherlink.com 1.10,2013-05-15 19:55:00,
2013-05-15 16:10:00,77.9,61.0,29.70,SSW,202,2.0,9.0,56,0.00,,,0.00,weatherlink.com 1.10,2013-05-15 20:10:00,
2013-05-15 16:25:00,78.7,61.0,29.69,SSE,158,0.0,9.0,55,0.00,,,0.00,weatherlink.com 1.10,2013-05-15 20:25:00,
2013-05-15 16:40:00,79.6,62.0,29.69,SSW,209,3.0,5.0,55,0.00,,,0.00,weatherlink.com 1.10,2013-05-15 20:40:00,
2013-05-15 17:10:00,78.6,62.0,29.66,SSW,198,3.0,8.0,56,0.00,,,0.00,weatherlink.com 1.10,2013-05-15 21:10:00,
2013-05-15 17:41:00,78.5,62.0,29.65,SW,218,1.0,6.0,57,0.00,,,0.00,weatherlink.com 1.10,2013-05-15 21:41:00,
2013-05-15 17:56:00,79.3,63.0,29.64,SW,220,0.0,4.0,58,0.00,,,0.00,weatherlink.com 1.10,2013-05-15 21:56:00,
2013-05-15 18:26:00,79.1,64.0,29.63,SSW,204,1.0,3.0,60,0.00,,,0.00,weatherlink.com 1.10,2013-05-15 22:26:00,
2013-05-15 18:41:00,78.9,64.0,29.63,SSW,202,1.0,3.0,60,0.00,,,0.00,weatherlink.com 1.10,2013-05-15 22:41:00,
2013-05-15 18:56:00,80.2,64.0,29.63,SSW,202,1.0,2.0,59,0.00,,,0.00,weatherlink.com 1.10,2013-05-15 22:56:00,
2013-05-15 19:11:00,79.8,65.0,29.64,SSW,202,0.0,2.0,60,0.00,,,0.00,weatherlink.com 1.10,2013-05-15 23:11:00,
2013-05-15 19:26:00,79.0,65.0,29.64,SSW,202,0.0,1.0,62,0.00,,,0.00,weatherlink.com 1.10,2013-05-15 23:26:00,
2013-05-15 19:41:00,78.9,65.0,29.65,SSW,202,0.0,1.0,62,0.00,,,0.00,weatherlink.com 1.10,2013-05-15 23:41:00,
2013-05-15 20:11:00,75.9,65.0,29.65,SSW,202,0.0,1.0,69,0.00,,,0.00,weatherlink.com 1.10,2013-05-16 00:11:00,
2013-05-15 20:41:00,75.3,65.0,29.66,SSW,202,0.0,1.0,70,0.00,,,0.00,weatherlink.com 1.10,2013-05-16 00:41:00,
2013-05-15 20:56:00,77.2,64.0,29.66,SSW,209,0.0,3.0,64,0.00,,,0.00,weatherlink.com 1.10,2013-05-16 00:56:00,
2013-05-15 21:11:00,78.3,64.0,29.66,South,182,0.0,5.0,61,0.00,,,0.00,weatherlink.com 1.10,2013-05-16 01:11:00,
2013-05-15 21:26:00,79.1,64.0,29.67,WNW,283,0.0,2.0,60,0.00,,,0.00,weatherlink.com 1.10,2013-05-16 01:26:00,
2013-05-15 21:41:00,79.1,63.0,29.68,South,190,3.0,6.0,59,0.00,,,0.00,weatherlink.com 1.10,2013-05-16 01:41:00,
2013-05-15 21:56:00,79.1,63.0,29.68,East,93,0.0,4.0,59,0.00,,,0.00,weatherlink.com 1.10,2013-05-16 01:56:00,
2013-05-15 22:11:00,78.6,63.0,29.68,SSE,157,0.0,2.0,60,0.00,,,0.00,weatherlink.com 1.10,2013-05-16 02:11:00,
2013-05-15 23:11:00,77.5,64.0,29.69,South,190,3.0,4.0,63,0.00,,,0.00,weatherlink.com 1.10,2013-05-16 03:11:00,
2013-05-15 23:26:00,77.3,64.0,29.69,SSW,200,0.0,3.0,64,0.00,,,0.00,weatherlink.com 1.10,2013-05-16 03:26:00,
2013-05-15 23:41:00,76.7,64.0,29.69,South,176,0.0,2.0,65,0.00,,,0.00,weatherlink.com 1.10,2013-05-16 03:41:00,
2013-05-15 23:56:00,76.8,64.0,29.70,NW,321,0.0,3.0,65,0.00,,,0.00,weatherlink.com 1.10,2013-05-16 03:56:00,